Time;durP1;ratioP1;P1;durP2;ratioP2;P2;SDS_P1;SDS_P2;PMS_P1;PMS_P2;Temp;Humidity;BMP_temperature;BMP_pressure;BME280_temperature;BME280_humidity;BME280_pressure;Samples;Min_cycle;Max_cycle;Signal;HPM_P1;HPM_P2
2021/06/02 00:00:03;;;;;;;;;5.25;5.25;;;;;30.13;31.48;100815.38;5079155;27;45433;-63
2021/06/02 00:02:30;;;;;;;;;5.50;5.50;;;;;30.11;31.85;100815.56;5081730;27;45506;-63
2021/06/02 00:05:01;;;;;;;;;4.50;4.25;;;;;30.10;31.84;100813.88;5073471;27;45558;-63
2021/06/02 00:07:26;;;;;;;;;8.25;5.75;;;;;30.08;31.87;100811.34;5078497;27;47175;-63
2021/06/02 00:09:55;;;;;;;;;5.25;5.25;;;;;30.08;31.91;100814.03;5077024;27;45643;-63
2021/06/02 00:12:22;;;;;;;;;6.50;6.50;;;;;30.07;31.79;100808.81;5080142;27;45791;-62
2021/06/02 00:14:49;;;;;;;;;5.75;5.25;;;;;30.05;31.57;100817.06;5074142;27;45677;-62
2021/06/02 00:17:14;;;;;;;;;5.00;4.25;;;;;30.04;32.09;100814.53;5076286;27;46424;-62
2021/06/02 00:19:40;;;;;;;;;5.75;5.00;;;;;30.02;31.78;100808.50;5075119;27;45627;-63
2021/06/02 00:22:07;;;;;;;;;6.00;5.00;;;;;30.03;31.90;100820.94;5073438;27;45583;-63
2021/06/02 00:24:34;;;;;;;;;4.75;4.75;;;;;30.02;31.82;100821.97;5073866;27;45885;-62
2021/06/02 00:27:04;;;;;;;;;4.25;4.25;;;;;30.01;31.36;100814.91;5081611;27;47054;-62
2021/06/02 00:29:31;;;;;;;;;6.00;6.00;;;;;29.98;31.53;100816.13;5084654;27;45508;-63
2021/06/02 00:31:58;;;;;;;;;4.00;4.00;;;;;29.99;31.95;100814.25;5075637;27;45514;-63
2021/06/02 00:34:24;;;;;;;;;5.00;5.00;;;;;29.96;31.87;100810.91;5073567;27;45572;-63
2021/06/02 00:36:52;;;;;;;;;6.75;6.75;;;;;29.97;31.79;100823.34;5077507;27;46901;-63
2021/06/02 00:39:17;;;;;;;;;5.75;4.75;;;;;29.95;32.16;100820.00;5077029;27;45825;-63
2021/06/02 00:41:45;;;;;;;;;6.75;5.75;;;;;29.94;32.12;100815.59;5078065;27;45706;-63
2021/06/02 00:44:13;;;;;;;;;4.75;4.75;;;;;29.93;31.99;100815.81;5082114;27;45729;-62
2021/06/02 00:46:41;;;;;;;;;5.50;5.50;;;;;29.93;31.51;100826.56;5079336;27;46793;-62
2021/06/02 00:49:25;;;;;;;;;5.00;5.00;;;;;29.91;32.32;100824.06;5082200;27;45680;-63
2021/06/02 00:52:01;;;;;;;;;5.75;4.25;;;;;29.91;31.65;100815.13;5078186;27;45489;-62
2021/06/02 00:54:34;;;;;;;;;5.25;5.25;;;;;29.89;31.70;100822.56;5077499;27;45432;-63
2021/06/02 00:57:05;;;;;;;;;6.00;5.25;;;;;29.89;31.55;100814.47;5076627;27;46065;-62
2021/06/02 00:59:39;;;;;;;;;6.25;5.25;;;;;29.87;32.27;100813.78;5083216;27;45939;-63
2021/06/02 01:02:10;;;;;;;;;8.00;4.75;;;;;29.86;31.87;100817.50;5077168;27;45739;-62
2021/06/02 01:04:38;;;;;;;;;5.00;5.00;;;;;29.86;31.83;100817.50;5075546;27;46008;-62
2021/06/02 01:07:06;;;;;;;;;4.00;4.00;;;;;29.83;32.03;100807.94;5077449;27;46108;-62
2021/06/02 01:09:34;;;;;;;;;5.50;4.75;;;;;29.83;32.32;100810.63;5078438;27;45926;-63
2021/06/02 01:12:01;;;;;;;;;4.25;4.25;;;;;29.82;31.80;100808.94;5077945;27;45581;-62
2021/06/02 01:14:27;;;;;;;;;4.50;4.50;;;;;29.80;32.07;100808.31;5080178;27;45411;-62
2021/06/02 01:16:55;;;;;;;;;6.25;5.00;;;;;29.78;32.27;100805.78;5080031;27;46121;-63
2021/06/02 01:19:22;;;;;;;;;4.50;4.50;;;;;29.78;31.92;100804.94;5081778;27;45588;-62
2021/06/02 01:22:02;;;;;;;;;4.50;4.50;;;;;29.75;32.09;100803.44;5076572;27;45820;-62
2021/06/02 01:24:30;;;;;;;;;6.75;4.75;;;;;29.74;31.81;100808.97;5077065;27;45478;-63
2021/06/02 01:27:01;;;;;;;;;4.00;4.00;;;;;29.71;31.93;100804.78;5078268;27;47576;-64
2021/06/02 01:29:28;;;;;;;;;5.25;4.75;;;;;29.69;32.51;100810.38;5077856;27;45731;-62
2021/06/02 01:32:24;;;;;;;;;5.00;5.00;;;;;29.68;31.58;100816.75;5078998;27;45846;-62
2021/06/02 01:35:36;;;;;;;;;3.75;3.75;;;;;29.65;32.36;100806.34;5061255;27;46168;-63
2021/06/02 01:38:23;;;;;;;;;4.75;3.75;;;;;29.64;32.24;100812.75;5075889;27;46283;-62
2021/06/02 01:41:08;;;;;;;;;3.75;3.75;;;;;29.62;31.91;100812.06;5078083;27;45839;-62
2021/06/02 01:43:58;;;;;;;;;4.50;4.50;;;;;29.61;31.98;100813.09;5081430;27;45484;-62
2021/06/02 01:47:15;;;;;;;;;5.25;5.25;;;;;29.59;31.73;100806.19;5082580;27;45750;-62
2021/06/02 01:50:14;;;;;;;;;4.25;4.25;;;;;29.57;32.25;100806.38;5067144;27;47690;-62
2021/06/02 01:53:18;;;;;;;;;5.50;3.75;;;;;29.56;32.45;100815.47;5077100;27;45584;-62
2021/06/02 01:56:02;;;;;;;;;5.75;4.25;;;;;29.54;32.42;100809.44;5075483;27;45358;-62
2021/06/02 01:59:01;;;;;;;;;4.50;4.50;;;;;29.52;32.08;100809.59;5075932;27;45522;-63
2021/06/02 02:01:45;;;;;;;;;7.00;6.00;;;;;29.51;32.61;100807.94;5081165;27;46247;-62
2021/06/02 02:04:20;;;;;;;;;6.50;5.00;;;;;29.49;32.06;100809.94;5077241;27;45737;-62
2021/06/02 02:06:57;;;;;;;;;4.75;4.25;;;;;29.50;32.03;100811.63;5077928;27;45747;-62
2021/06/02 02:09:37;;;;;;;;;4.25;4.25;;;;;29.48;32.59;100796.66;5080524;27;45540;-63
2021/06/02 02:12:28;;;;;;;;;5.50;5.25;;;;;29.46;32.08;100804.88;5073593;27;46508;-62
2021/06/02 02:15:04;;;;;;;;;4.00;4.00;;;;;29.46;32.06;100799.50;5078322;27;45807;-62
2021/06/02 02:17:48;;;;;;;;;5.75;5.50;;;;;29.44;31.98;100801.50;5075225;27;45481;-62
2021/06/02 02:20:28;;;;;;;;;6.00;5.00;;;;;29.44;31.92;100812.28;5075997;27;45465;-62
2021/06/02 02:23:23;;;;;;;;;5.00;5.00;;;;;29.43;32.47;100813.28;5076673;27;47126;-62
2021/06/02 02:25:57;;;;;;;;;4.25;4.25;;;;;29.42;32.64;100808.94;5069939;27;45658;-62
2021/06/02 02:28:46;;;;;;;;;4.25;4.25;;;;;29.40;32.25;100814.47;5079167;27;45445;-62
2021/06/02 02:31:50;;;;;;;;;5.00;5.00;;;;;29.38;32.49;100819.19;5080818;27;45544;-62
2021/06/02 02:34:50;;;;;;;;;6.25;6.25;;;;;29.37;32.43;100819.38;5080813;27;46445;-62
2021/06/02 02:37:43;;;;;;;;;4.25;4.25;;;;;29.35;32.43;100814.16;5079586;27;45582;-62
2021/06/02 02:40:22;;;;;;;;;3.50;3.50;;;;;29.34;32.05;100814.31;5055178;27;45447;-62
2021/06/02 02:43:02;;;;;;;;;4.25;4.25;;;;;29.31;31.97;100813.66;5038842;27;45553;-62
2021/06/02 02:45:56;;;;;;;;;7.25;6.00;;;;;29.30;32.21;100808.44;5058601;27;46423;-62
2021/06/02 02:48:38;;;;;;;;;3.50;3.50;;;;;29.29;32.21;100814.84;5058696;27;45716;-62
2021/06/02 02:51:21;;;;;;;;;5.75;4.50;;;;;29.26;32.32;100816.03;5055289;27;45455;-62
2021/06/02 02:54:02;;;;;;;;;5.00;4.00;;;;;29.25;31.94;100817.06;5057057;27;45557;-62
2021/06/02 02:56:54;;;;;;;;;4.50;4.25;;;;;29.24;32.05;100811.84;5056465;27;46237;-62
2021/06/02 02:59:35;;;;;;;;;4.25;3.25;;;;;29.22;32.32;100808.50;5056442;27;45583;-62
2021/06/02 03:02:20;;;;;;;;;5.00;5.00;;;;;29.20;32.63;100818.56;5062137;27;45590;-62
2021/06/02 03:04:54;;;;;;;;;4.00;4.00;;;;;29.18;32.75;100816.91;5055626;27;45763;-62
2021/06/02 03:07:22;;;;;;;;;4.75;4.75;;;;;29.17;32.06;100814.38;5055794;27;46961;-62
2021/06/02 03:10:02;;;;;;;;;6.00;6.00;;;;;29.16;31.97;100818.94;5057137;27;45701;-61
2021/06/02 03:12:57;;;;;;;;;4.25;4.25;;;;;29.13;31.86;100816.56;5056382;27;45655;-61
2021/06/02 03:15:44;;;;;;;;;6.00;6.00;;;;;29.12;32.04;100822.09;5059582;27;45771;-61
2021/06/02 03:18:22;;;;;;;;;4.00;4.00;;;;;29.11;32.61;100820.44;5061783;27;46206;-61
2021/06/02 03:21:09;;;;;;;;;4.50;4.50;;;;;29.08;32.35;100816.25;5054894;27;45535;-61
2021/06/02 03:24:15;;;;;;;;;4.25;4.25;;;;;29.07;32.67;100817.25;5048969;27;46032;-61
2021/06/02 03:26:51;;;;;;;;;4.50;4.50;;;;;29.06;32.70;100818.28;5056912;27;46585;-61
2021/06/02 03:29:40;;;;;;;;;3.00;2.75;;;;;29.05;32.12;100813.88;5057201;27;45546;-61
2021/06/02 03:32:20;;;;;;;;;3.25;3.25;;;;;29.02;32.83;100812.38;5057132;27;45887;-61
2021/06/02 03:34:49;;;;;;;;;6.00;6.00;;;;;29.02;32.28;100814.25;5049977;27;45546;-61
2021/06/02 03:37:23;;;;;;;;;4.25;4.25;;;;;29.01;32.81;100815.25;5060951;27;45665;-61
2021/06/02 03:40:21;;;;;;;;;4.75;4.00;;;;;29.00;32.56;100822.47;5052560;27;47036;-61
2021/06/02 03:42:57;;;;;;;;;6.25;5.00;;;;;28.99;32.33;100814.56;5058044;27;45662;-61
2021/06/02 03:45:37;;;;;;;;;4.50;4.50;;;;;28.97;32.73;100820.13;5053134;27;45585;-61
2021/06/02 03:48:26;;;;;;;;;3.00;3.00;;;;;28.96;32.07;100814.94;5061115;27;45687;-61
2021/06/02 03:51:01;;;;;;;;;5.00;5.00;;;;;28.95;32.81;100822.16;5043917;27;47755;-61
2021/06/02 03:53:45;;;;;;;;;6.25;5.00;;;;;28.94;32.12;100814.25;5059786;27;45847;-61
2021/06/02 03:56:42;;;;;;;;;6.25;4.75;;;;;28.93;32.69;100815.25;5054216;27;45830;-61
2021/06/02 03:59:16;;;;;;;;;4.00;4.00;;;;;28.91;32.72;100812.72;5051775;27;45648;-61
2021/06/02 04:01:48;;;;;;;;;4.75;3.25;;;;;28.91;32.86;100815.41;5055407;27;47455;-61
2021/06/02 04:04:25;;;;;;;;;5.00;5.00;;;;;28.90;32.19;100816.44;5057804;27;45503;-61
2021/06/02 04:06:56;;;;;;;;;6.00;4.00;;;;;28.87;32.18;100817.63;5054822;27;45878;-61
2021/06/02 04:09:28;;;;;;;;;5.50;4.00;;;;;28.84;32.36;100814.41;5056630;27;47930;-61
2021/06/02 04:12:13;;;;;;;;;5.25;5.25;;;;;28.85;32.68;100813.38;5054519;27;47366;-61
2021/06/02 04:14:46;;;;;;;;;4.00;4.00;;;;;28.83;32.02;100821.63;5053562;27;45765;-61
2021/06/02 04:17:14;;;;;;;;;3.25;3.25;;;;;28.81;32.65;100814.72;5056211;27;45573;-61
2021/06/02 04:19:43;;;;;;;;;4.50;4.00;;;;;28.75;32.68;100813.56;5059758;27;45813;-61
2021/06/02 04:22:12;;;;;;;;;4.25;4.25;;;;;28.78;32.08;100830.19;5053472;27;46374;-61
2021/06/02 04:24:38;;;;;;;;;4.25;4.25;;;;;28.78;32.25;100829.34;5056135;27;45793;-61
2021/06/02 04:27:05;;;;;;;;;4.50;4.50;;;;;28.77;32.07;100833.03;5058730;27;46517;-61
2021/06/02 04:29:32;;;;;;;;;4.25;4.25;;;;;28.75;32.15;100821.63;5053260;27;45911;-61
2021/06/02 04:32:03;;;;;;;;;4.75;4.75;;;;;28.74;32.26;100822.66;5062882;27;47225;-61
2021/06/02 04:34:30;;;;;;;;;4.75;4.50;;;;;28.71;32.17;100822.97;5061721;27;45553;-62
2021/06/02 04:36:58;;;;;;;;;3.75;3.75;;;;;28.71;32.62;100825.66;5057439;27;46660;-61
2021/06/02 04:39:25;;;;;;;;;4.50;4.25;;;;;28.71;32.13;100825.66;5074198;27;45874;-61
2021/06/02 04:41:58;;;;;;;;;5.00;4.25;;;;;28.69;32.22;100825.00;5073603;27;47017;-61
2021/06/02 04:44:26;;;;;;;;;4.25;4.25;;;;;28.63;32.92;100813.91;5079209;27;45775;-61
2021/06/02 04:46:52;;;;;;;;;5.25;5.25;;;;;28.63;32.36;100827.34;5080299;27;46222;-61
2021/06/02 04:49:23;;;;;;;;;5.00;5.00;;;;;28.61;32.74;100820.47;5082515;27;45820;-61
2021/06/02 04:52:02;;;;;;;;;7.00;6.00;;;;;28.64;32.84;100829.03;5078298;27;46168;-61
2021/06/02 04:55:05;;;;;;;;;5.50;5.50;;;;;28.62;32.13;100828.34;5078786;27;45689;-61
2021/06/02 04:57:54;;;;;;;;;4.00;4.00;;;;;28.61;32.46;100826.66;5077933;27;45488;-62
2021/06/02 05:00:44;;;;;;;;;6.25;5.25;;;;;28.59;32.87;100825.16;5076980;27;45628;-62
2021/06/02 05:03:28;;;;;;;;;4.75;4.75;;;;;28.59;32.82;100825.16;5075662;27;46409;-61
2021/06/02 05:06:24;;;;;;;;;6.00;5.00;;;;;28.58;32.98;100827.00;5080169;27;45603;-61
2021/06/02 05:09:18;;;;;;;;;8.75;8.00;;;;;28.56;32.89;100837.06;5078819;27;45929;-61
2021/06/02 05:12:03;;;;;;;;;5.25;5.25;;;;;28.55;32.60;100829.16;5084861;27;45579;-61
2021/06/02 05:14:47;;;;;;;;;5.25;5.25;;;;;28.54;33.17;100839.09;5074775;27;46088;-61
2021/06/02 05:17:56;;;;;;;;;5.75;5.75;;;;;28.51;33.12;100842.94;5079949;27;45973;-62
2021/06/02 05:23:20;;;;;;;;;5.25;5.25;;;;;28.49;34.79;100849.50;5077016;27;45466;-60
2021/06/02 05:26:08;;;;;;;;;6.00;6.00;;;;;28.48;35.03;100861.25;5082360;27;47087;-60
2021/06/02 05:29:30;;;;;;;;;9.00;7.00;;;;;28.46;34.36;100856.03;5077965;27;45715;-60
2021/06/02 05:32:14;;;;;;;;;8.25;6.50;;;;;28.44;35.23;100873.34;5019017;28;45511;-60
2021/06/02 05:35:00;;;;;;;;;6.00;5.75;;;;;28.43;34.68;100861.75;5020805;28;45566;-60
2021/06/02 05:37:41;;;;;;;;;7.50;6.00;;;;;28.43;34.71;100871.66;5070399;27;46245;-60
2021/06/02 05:40:21;;;;;;;;;6.75;6.75;;;;;28.42;34.78;100862.75;5077703;27;45410;-60
2021/06/02 05:43:01;;;;;;;;;8.50;6.00;;;;;28.42;34.87;100859.22;5080777;27;45762;-60
2021/06/02 05:45:53;;;;;;;;;7.50;5.75;;;;;28.41;34.38;100871.81;5080008;27;45544;-60
2021/06/02 05:48:32;;;;;;;;;5.50;5.50;;;;;28.39;34.79;100865.75;5078931;27;46870;-60
2021/06/02 05:51:30;;;;;;;;;4.50;4.50;;;;;28.38;34.33;100874.81;5078798;27;45651;-61
2021/06/02 05:54:15;;;;;;;;;5.25;5.25;;;;;28.37;34.18;100882.06;5081640;27;45513;-61
2021/06/02 05:56:59;;;;;;;;;5.25;5.25;;;;;28.36;34.81;100883.03;5081705;27;45552;-60
2021/06/02 05:59:50;;;;;;;;;7.75;6.75;;;;;28.35;34.29;100877.84;5078648;27;46365;-60
2021/06/02 06:02:40;;;;;;;;;7.75;6.25;;;;;28.34;34.67;100871.63;5077005;27;45633;-60
2021/06/02 06:05:27;;;;;;;;;6.50;6.25;;;;;28.33;34.03;100871.78;5082514;27;48179;-60
2021/06/02 06:08:02;;;;;;;;;5.50;5.50;;;;;28.32;34.20;100886.22;5070542;27;45522;-60
2021/06/02 06:11:04;;;;;;;;;6.25;6.25;;;;;28.30;33.95;100878.31;5077255;27;46789;-60
2021/06/02 06:13:50;;;;;;;;;7.00;6.00;;;;;28.29;34.25;100876.66;5075598;27;45750;-60
2021/06/02 06:16:39;;;;;;;;;9.50;7.00;;;;;28.29;33.97;100873.13;5076177;27;45606;-60
2021/06/02 06:19:13;;;;;;;;;7.50;7.25;;;;;28.28;33.72;100879.50;5084402;27;45811;-61
2021/06/02 06:21:54;;;;;;;;;5.25;4.25;;;;;28.27;34.20;100878.66;5081091;27;47695;-60
2021/06/02 06:24:47;;;;;;;;;4.25;4.25;;;;;28.27;34.25;100872.44;5074927;27;45778;-60
2021/06/02 06:27:25;;;;;;;;;7.00;6.00;;;;;28.26;33.93;100890.41;5071462;27;45679;-61
2021/06/02 06:30:05;;;;;;;;;6.00;5.75;;;;;28.26;33.71;100882.34;5069165;27;45586;-60
2021/06/02 06:32:34;;;;;;;;;8.00;8.00;;;;;28.24;33.88;100884.34;5074497;27;47030;-60
2021/06/02 06:35:03;;;;;;;;;7.25;5.50;;;;;28.24;33.65;100884.34;5074657;27;45433;-60
2021/06/02 06:37:33;;;;;;;;;5.75;5.75;;;;;28.23;34.22;100877.28;5083682;27;45546;-60
2021/06/02 06:40:22;;;;;;;;;6.25;6.25;;;;;28.23;34.10;100877.28;5076272;27;45459;-61
2021/06/02 06:42:52;;;;;;;;;7.00;7.00;;;;;28.22;34.27;100883.66;5067782;27;47189;-60
2021/06/02 06:45:19;;;;;;;;;7.00;7.00;;;;;28.21;33.66;100885.50;5076705;27;45587;-60
2021/06/02 06:47:47;;;;;;;;;7.25;6.00;;;;;28.21;34.17;100882.81;5081099;27;45636;-60
2021/06/02 06:50:14;;;;;;;;;10.00;6.50;;;;;28.20;33.50;100878.44;5080506;27;45560;-60
2021/06/02 06:52:43;;;;;;;;;7.00;6.00;;;;;28.21;33.86;100879.28;5078381;27;46090;-60
2021/06/02 06:55:10;;;;;;;;;7.75;6.25;;;;;28.17;33.65;100877.94;5075736;27;45626;-60
2021/06/02 06:57:39;;;;;;;;;5.50;5.50;;;;;28.16;33.92;100870.88;5077647;27;45671;-60
2021/06/02 07:00:08;;;;;;;;;7.50;5.50;;;;;28.17;33.65;100876.09;5078264;27;45517;-60
2021/06/02 07:02:36;;;;;;;;;9.25;7.00;;;;;28.17;33.67;100886.00;5080432;27;47310;-60
2021/06/02 07:05:04;;;;;;;;;5.50;5.50;;;;;28.16;33.88;100889.66;5063115;27;45774;-60
2021/06/02 07:07:33;;;;;;;;;6.00;5.00;;;;;28.16;34.00;100895.03;5067678;27;45853;-59
2021/06/02 07:09:59;;;;;;;;;10.00;9.25;;;;;28.09;35.54;100889.50;5083359;27;46000;-59
2021/06/02 07:12:26;;;;;;;;;9.25;9.25;;;;;28.07;35.86;100899.53;5080243;27;46132;-59
2021/06/02 07:14:54;;;;;;;;;14.00;10.00;;;;;27.99;35.40;100897.66;5081630;27;45811;-60
2021/06/02 07:17:23;;;;;;;;;13.00;11.00;;;;;27.92;36.28;100896.63;5075044;27;45770;-60
2021/06/02 07:19:58;;;;;;;;;11.25;11.00;;;;;27.84;37.22;100894.75;5080420;27;45680;-60
2021/06/02 07:22:24;;;;;;;;;12.50;11.75;;;;;27.74;37.25;100889.53;5085642;27;45752;-59
2021/06/02 07:24:53;;;;;;;;;11.00;11.00;;;;;27.64;37.44;100889.63;5081438;27;45876;-60
2021/06/02 07:27:20;;;;;;;;;14.00;13.25;;;;;27.56;37.93;100890.38;5078075;27;45612;-60
2021/06/02 07:29:46;;;;;;;;;11.00;9.75;;;;;27.46;38.40;100886.97;5079220;27;45597;-60
2021/06/02 07:32:12;;;;;;;;;11.00;10.00;;;;;27.33;38.83;100882.88;5074308;27;47127;-59
2021/06/02 07:34:38;;;;;;;;;13.25;13.25;;;;;27.35;38.83;100887.25;5081826;27;45736;-59
2021/06/02 07:37:03;;;;;;;;;12.00;11.00;;;;;27.32;39.15;100899.97;5083104;27;45750;-58
2021/06/02 07:39:29;;;;;;;;;12.00;10.00;;;;;27.29;38.88;100897.59;5082327;27;45488;-59
2021/06/02 07:41:55;;;;;;;;;11.75;11.75;;;;;27.31;38.97;100910.84;5080562;27;45794;-59
2021/06/02 07:44:20;;;;;;;;;12.25;10.25;;;;;27.28;39.22;100898.59;5079601;27;45724;-58
2021/06/02 07:46:46;;;;;;;;;14.75;13.00;;;;;27.28;39.46;100905.78;5077253;27;45489;-59
2021/06/02 07:49:12;;;;;;;;;10.50;10.50;;;;;27.26;40.09;100911.34;5078144;27;45572;-59
2021/06/02 07:51:37;;;;;;;;;11.75;11.00;;;;;27.23;39.44;100900.06;5078490;27;46093;-58
2021/06/02 07:54:07;;;;;;;;;14.00;12.25;;;;;27.16;39.82;100899.88;5082956;27;45435;-60
2021/06/02 07:56:33;;;;;;;;;11.75;10.00;;;;;27.16;40.14;100908.72;5084823;27;45879;-60
2021/06/02 07:58:59;;;;;;;;;11.00;10.25;;;;;27.10;40.40;100905.81;5075600;27;45833;-60
2021/06/02 08:01:25;;;;;;;;;11.25;8.00;;;;;27.09;40.66;100914.88;5074486;27;46920;-60
2021/06/02 08:03:50;;;;;;;;;12.75;11.00;;;;;27.02;40.66;100928.91;5080370;27;45903;-62
2021/06/02 08:06:17;;;;;;;;;12.50;10.75;;;;;26.93;40.91;100914.59;5075337;27;45747;-64
2021/06/02 08:08:42;;;;;;;;;11.75;11.00;;;;;26.97;41.01;100925.84;5078622;27;45668;-63
2021/06/02 08:11:08;;;;;;;;;24.00;23.25;;;;;26.93;41.02;100925.31;5077055;27;47085;-62
2021/06/02 08:13:34;;;;;;;;;24.25;21.75;;;;;26.91;41.08;100918.38;5078907;27;45696;-61
2021/06/02 08:16:00;;;;;;;;;34.75;31.00;;;;;26.89;41.21;100923.03;5080243;27;45945;-63
2021/06/02 08:18:25;;;;;;;;;20.75;18.75;;;;;26.88;41.51;100919.53;5075678;27;45825;-61
2021/06/02 08:20:51;;;;;;;;;16.00;14.00;;;;;26.88;41.42;100918.69;5083111;27;46157;-61
2021/06/02 08:23:17;;;;;;;;;16.75;15.00;;;;;26.86;41.55;100932.22;5079915;27;45521;-61
2021/06/02 08:25:43;;;;;;;;;12.00;11.25;;;;;26.84;41.49;100933.38;5076336;27;45524;-60
2021/06/02 08:28:09;;;;;;;;;11.50;10.50;;;;;26.85;41.70;100933.22;5073332;27;46061;-60
2021/06/02 08:30:34;;;;;;;;;13.50;11.75;;;;;26.85;41.86;100940.44;5078929;27;54967;-61
2021/06/02 08:33:00;;;;;;;;;12.50;11.00;;;;;26.82;42.02;100933.53;5082740;27;45834;-67
2021/06/02 08:35:26;;;;;;;;;12.75;11.75;;;;;26.82;42.20;100930.88;5079220;27;45637;-67
2021/06/02 08:37:55;;;;;;;;;11.75;11.00;;;;;26.84;42.29;100936.06;5081147;27;45711;-67
2021/06/02 08:40:21;;;;;;;;;14.00;13.75;;;;;26.84;42.21;100942.25;5075103;27;47160;-65
2021/06/02 08:42:48;;;;;;;;;12.75;11.00;;;;;26.85;42.42;100933.22;5076904;27;45603;-67
2021/06/02 08:45:15;;;;;;;;;11.50;11.50;;;;;26.90;42.24;100954.22;5074557;27;48485;-67
2021/06/02 08:47:42;;;;;;;;;12.25;11.50;;;;;26.89;42.26;100934.59;5075871;27;45634;-64
2021/06/02 08:50:11;;;;;;;;;28.25;28.00;;;;;26.90;42.75;100954.22;5071540;27;46227;-63
2021/06/02 08:52:38;;;;;;;;;29.25;28.50;;;;;26.87;42.74;100946.47;5082139;27;45784;-68
2021/06/02 08:55:08;;;;;;;;;16.50;15.25;;;;;26.85;42.73;100940.44;5075973;27;45722;-60
2021/06/02 08:57:39;;;;;;;;;15.00;14.00;;;;;26.83;42.60;100940.59;5081260;27;45766;-62
2021/06/02 09:00:08;;;;;;;;;15.25;14.00;;;;;26.85;42.78;100943.13;5080489;27;46563;-63
2021/06/02 09:02:34;;;;;;;;;15.25;14.00;;;;;26.71;43.04;100923.88;5079117;27;45745;-63
2021/06/02 09:05:00;;;;;;;;;14.00;12.50;;;;;26.79;43.18;100940.06;5077744;27;45686;-63
2021/06/02 09:07:26;;;;;;;;;14.25;11.75;;;;;26.78;43.15;100941.03;5083618;27;45947;-62
2021/06/02 09:09:52;;;;;;;;;12.00;11.50;;;;;26.80;42.92;100946.25;5077539;27;47500;-64
2021/06/02 09:12:35;;;;;;;;;13.75;12.00;;;;;26.79;43.23;100939.19;5079220;27;45661;-61
2021/06/02 09:15:13;;;;;;;;;15.75;12.00;;;;;26.79;43.14;100942.72;5079919;27;45571;-62
2021/06/02 09:17:56;;;;;;;;;14.25;12.75;;;;;26.78;43.17;100930.31;5074879;27;45728;-64
2021/06/02 09:20:41;;;;;;;;;14.50;12.75;;;;;26.80;43.05;100933.69;5072752;27;46977;-64
2021/06/02 09:23:37;;;;;;;;;13.00;13.00;;;;;26.84;43.27;100934.22;5076067;27;45722;-63
2021/06/02 09:26:18;;;;;;;;;12.75;12.75;;;;;26.88;43.32;100937.44;5068213;27;46024;-66
2021/06/02 09:29:02;;;;;;;;;12.50;12.00;;;;;26.91;43.77;100940.66;5081150;27;45635;-66
2021/06/02 09:31:37;;;;;;;;;13.75;11.50;;;;;26.94;43.49;100939.53;5078816;27;45789;-66
2021/06/02 09:34:24;;;;;;;;;13.25;10.50;;;;;26.95;43.50;100932.34;5076762;27;45636;-66
2021/06/02 09:36:56;;;;;;;;;11.00;9.50;;;;;26.99;44.15;100939.91;5074847;27;45551;-64
2021/06/02 09:39:23;;;;;;;;;14.00;13.00;;;;;27.00;43.95;100938.09;5076652;27;45488;-65
2021/06/02 09:41:54;;;;;;;;;14.75;13.50;;;;;27.02;43.84;100942.28;5078331;27;46314;-67
2021/06/02 09:44:21;;;;;;;;;15.50;13.75;;;;;27.03;44.17;100937.78;5081823;27;45518;-65
2021/06/02 09:47:12;;;;;;;;;13.25;13.00;;;;;27.05;44.04;100954.53;5079908;27;45608;-66
2021/06/02 09:49:51;;;;;;;;;13.50;13.00;;;;;27.05;44.41;100947.34;5074743;27;45829;-69
2021/06/02 09:52:18;;;;;;;;;11.75;10.75;;;;;27.04;43.81;100959.06;5072427;27;46282;-66
2021/06/02 09:54:44;;;;;;;;;15.25;13.75;;;;;27.02;43.99;100949.47;5083826;27;45576;-74
2021/06/02 09:57:11;;;;;;;;;13.50;13.25;;;;;27.03;44.23;100962.72;5078287;27;45524;-71
2021/06/02 10:00:04;;;;;;;;;15.50;11.00;;;;;27.03;44.19;100959.22;5078004;27;45856;-66
2021/06/02 10:02:29;;;;;;;;;14.50;13.75;;;;;27.06;44.27;100953.53;5083322;27;46347;-68
2021/06/02 10:05:01;;;;;;;;;12.00;12.00;;;;;27.08;43.88;100948.88;5076687;27;45469;-74
2021/06/02 10:07:26;;;;;;;;;14.50;13.75;;;;;27.12;43.91;100949.41;5080301;27;45571;-65
2021/06/02 10:09:52;;;;;;;;;15.00;12.50;;;;;27.16;43.82;100942.75;5085128;27;45598;-65
2021/06/02 10:12:18;;;;;;;;;15.75;12.75;;;;;27.20;42.91;100941.44;5075737;27;45876;-65
2021/06/02 10:14:54;;;;;;;;;12.00;10.75;;;;;27.25;43.77;100947.16;5077537;27;45436;-66
2021/06/02 10:17:31;;;;;;;;;14.25;13.25;;;;;27.30;43.75;100946.72;5082803;27;45587;-67
2021/06/02 10:20:10;;;;;;;;;14.50;13.00;;;;;27.33;43.40;100951.75;5076425;27;45418;-65
2021/06/02 10:22:36;;;;;;;;;13.00;13.00;;;;;27.38;43.42;100953.97;5078959;27;46210;-63
2021/06/02 10:25:06;;;;;;;;;13.25;13.25;;;;;27.42;43.22;100969.59;5077175;27;45912;-63
2021/06/02 10:27:31;;;;;;;;;10.75;10.75;;;;;27.46;43.17;100962.06;5075445;27;48019;-65
2021/06/02 10:29:58;;;;;;;;;14.25;12.25;;;;;27.50;43.25;100962.59;5076998;27;45551;-65
2021/06/02 10:32:24;;;;;;;;;11.75;10.25;;;;;27.54;42.88;100967.50;5070699;27;46383;-66
2021/06/02 10:34:52;;;;;;;;;13.50;12.25;;;;;27.57;43.58;100959.13;5077364;27;45862;-66
2021/06/02 10:37:19;;;;;;;;;14.00;13.50;;;;;27.59;42.90;100965.22;5079502;27;45529;-73
2021/06/02 10:39:52;;;;;;;;;14.50;13.00;;;;;27.62;42.94;100966.75;5080030;27;45546;-69
2021/06/02 10:42:49;;;;;;;;;13.00;13.00;;;;;27.66;43.40;100978.84;5074657;27;46249;-68
2021/06/02 10:45:29;;;;;;;;;13.75;12.25;;;;;27.68;43.17;100963.44;5069194;27;45831;-63
2021/06/02 10:47:57;;;;;;;;;11.25;10.50;;;;;27.71;43.02;100962.28;5071617;27;45815;-63
2021/06/02 10:50:44;;;;;;;;;14.00;12.00;;;;;27.74;42.96;100964.66;5087897;27;47743;-61
2021/06/02 10:53:19;;;;;;;;;10.50;10.50;;;;;27.79;43.09;100972.22;5073848;27;46340;-61
2021/06/02 10:55:46;;;;;;;;;22.00;20.00;;;;;27.80;42.91;100969.38;5085086;27;45800;-62
2021/06/02 10:58:21;;;;;;;;;18.00;17.00;;;;;27.79;42.94;100961.47;5076949;27;45660;-68
2021/06/02 11:01:05;;;;;;;;;18.50;14.50;;;;;27.84;42.54;100980.63;5075367;27;45760;-63
2021/06/02 11:03:31;;;;;;;;;13.25;9.75;;;;;27.85;42.66;100983.16;5073588;27;46124;-66
2021/06/02 11:06:16;;;;;;;;;13.50;13.00;;;;;27.88;43.01;100975.78;5076005;27;45502;-66
2021/06/02 11:08:52;;;;;;;;;15.00;13.75;;;;;27.91;42.43;100976.31;5072245;27;45912;-66
2021/06/02 11:11:38;;;;;;;;;13.00;12.75;;;;;27.93;42.80;100982.38;5076879;27;45445;-62
2021/06/02 11:14:19;;;;;;;;;12.25;12.00;;;;;27.97;42.95;100982.88;5077850;27;46505;-62
2021/06/02 11:16:45;;;;;;;;;13.25;12.50;;;;;27.99;42.51;100983.56;5074800;27;45925;-66
2021/06/02 11:19:16;;;;;;;;;11.75;11.25;;;;;28.02;42.36;100977.03;5070284;27;45888;-66
2021/06/02 11:21:54;;;;;;;;;15.00;12.00;;;;;28.04;42.51;100980.41;5074595;27;45888;-65
2021/06/02 11:24:47;;;;;;;;;12.00;10.50;;;;;28.05;42.90;100974.03;5073699;27;47230;-67
2021/06/02 11:27:12;;;;;;;;;13.00;11.75;;;;;28.06;42.17;100983.75;5072613;27;45834;-65
2021/06/02 11:29:51;;;;;;;;;10.25;10.25;;;;;28.06;42.50;100998.03;5072612;27;45771;-66
2021/06/02 11:32:29;;;;;;;;;11.75;10.75;;;;;28.06;42.24;100995.34;5075839;27;45910;-71
2021/06/02 11:34:56;;;;;;;;;12.00;12.00;;;;;28.06;42.96;101005.25;5076688;27;46507;-62
2021/06/02 11:37:30;;;;;;;;;11.75;11.25;;;;;28.05;42.32;100998.19;5076739;27;46113;-65
2021/06/02 11:39:58;;;;;;;;;14.50;12.75;;;;;28.03;42.57;100998.34;5070162;27;46193;-63
2021/06/02 11:42:52;;;;;;;;;14.00;12.50;;;;;28.03;42.43;101000.22;5075387;27;46163;-62
2021/06/02 11:45:21;;;;;;;;;15.25;13.50;;;;;28.04;42.62;100993.84;5060443;27;45654;-61
2021/06/02 11:47:49;;;;;;;;;16.00;14.75;;;;;28.05;42.42;100992.81;5078462;27;45746;-63
2021/06/02 11:50:17;;;;;;;;;14.25;14.25;;;;;28.07;42.19;100997.03;5074702;27;45601;-62
2021/06/02 11:52:44;;;;;;;;;16.00;14.00;;;;;28.07;42.60;100986.28;5080320;27;45687;-62
2021/06/02 11:55:15;;;;;;;;;13.75;13.25;;;;;28.05;42.10;100984.78;5078282;27;45591;-62
2021/06/02 11:57:49;;;;;;;;;14.50;13.75;;;;;28.11;42.34;100993.03;5073779;27;46112;-63
2021/06/02 12:00:16;;;;;;;;;10.75;10.25;;;;;28.14;41.93;100993.69;5077103;27;45977;-62